createdAt,value
2018-04-30T16:41:44.538Z,1.40
2018-04-30T16:42:44.300Z,1.00
2018-04-30T16:44:39.550Z,0.90
2018-04-30T16:45:39.446Z,1.20
2018-04-30T16:47:34.921Z,1.10
2018-04-30T16:48:34.619Z,0.90
2018-04-30T16:49:34.567Z,1.10
2018-04-30T16:50:34.501Z,1.20
2018-04-30T16:51:34.423Z,1.20
2018-04-30T16:52:34.361Z,0.80
2018-04-30T16:53:34.274Z,0.80
2018-04-30T16:54:34.202Z,0.80
2018-04-30T16:55:34.132Z,1.00
2018-04-30T16:56:34.068Z,0.90
2018-04-30T16:57:34.016Z,0.80
2018-04-30T16:58:33.966Z,0.90
2018-04-30T16:59:33.882Z,1.00
2018-04-30T17:00:33.800Z,0.80
2018-04-30T17:01:33.741Z,0.70
2018-04-30T17:02:33.669Z,0.70
2018-04-30T17:03:33.630Z,0.90
2018-04-30T17:04:33.540Z,0.80
2018-04-30T17:05:33.454Z,0.90
2018-04-30T17:06:33.431Z,0.90
2018-04-30T17:07:33.345Z,0.80
2018-04-30T17:08:33.254Z,0.70
2018-04-30T17:09:33.217Z,1.00
2018-04-30T17:10:33.186Z,1.20
2018-04-30T17:11:33.061Z,0.90
2018-04-30T17:12:33.010Z,1.10
2018-04-30T17:13:32.943Z,1.00
2018-04-30T17:14:32.878Z,1.00
2018-04-30T17:15:32.818Z,1.20
2018-04-30T17:16:32.750Z,0.90
2018-04-30T17:17:32.704Z,1.10
2018-04-30T17:18:32.605Z,1.00
2018-04-30T17:19:32.572Z,1.30
2018-04-30T17:20:32.466Z,1.10
2018-04-30T17:21:32.439Z,1.00
2018-04-30T17:22:32.345Z,1.40
2018-04-30T17:23:32.281Z,1.10
2018-04-30T17:24:32.218Z,1.30
2018-04-30T17:25:32.159Z,1.20
2018-04-30T17:26:32.072Z,1.30
2018-04-30T17:27:32.040Z,1.00
2018-04-30T17:28:31.957Z,1.20
2018-04-30T17:29:31.901Z,0.80
2018-04-30T17:30:31.868Z,1.20
2018-04-30T17:31:31.745Z,1.10
2018-04-30T17:32:31.686Z,1.00
2018-04-30T17:33:31.615Z,1.00
2018-04-30T17:34:31.570Z,1.20
2018-04-30T17:35:31.506Z,1.20
2018-04-30T17:36:31.479Z,1.00
2018-04-30T17:37:31.378Z,1.20
2018-04-30T17:38:31.380Z,0.90
2018-04-30T17:39:31.230Z,1.30
2018-04-30T17:40:31.169Z,1.30
2018-04-30T17:41:31.128Z,1.80
2018-04-30T17:42:31.047Z,1.50
2018-04-30T17:43:30.959Z,1.80
2018-04-30T17:44:30.891Z,1.60
2018-04-30T17:45:30.824Z,1.80
2018-04-30T17:46:30.779Z,1.60
2018-04-30T17:47:30.723Z,2.50
2018-04-30T17:48:30.631Z,1.60
2018-04-30T17:49:30.580Z,1.60
2018-04-30T17:50:30.494Z,1.50
2018-04-30T17:51:30.435Z,1.70
2018-04-30T17:52:30.379Z,1.40
2018-04-30T17:53:30.324Z,1.80
2018-04-30T17:54:30.241Z,1.80
2018-04-30T17:55:30.193Z,1.50
2018-04-30T17:56:30.106Z,1.60
2018-04-30T17:57:30.058Z,1.20
2018-04-30T17:58:29.972Z,1.20
2018-04-30T17:59:29.912Z,1.00
2018-04-30T18:00:29.841Z,1.10
2018-04-30T18:01:29.781Z,1.50
2018-04-30T18:02:29.756Z,1.90
2018-04-30T18:03:29.657Z,1.50
2018-04-30T18:04:29.584Z,1.80
2018-04-30T18:05:29.514Z,1.70
2018-04-30T18:06:29.458Z,1.30
2018-04-30T18:07:29.392Z,2.00
2018-04-30T18:08:29.312Z,1.30
2018-04-30T18:09:29.270Z,1.20
2018-04-30T18:10:29.187Z,1.20
2018-04-30T18:11:29.135Z,1.40
2018-04-30T18:12:29.043Z,1.30
2018-04-30T18:13:28.975Z,1.30
2018-04-30T18:14:28.908Z,1.10
2018-04-30T18:15:28.845Z,1.80
2018-04-30T18:16:28.778Z,1.70
2018-04-30T18:17:28.716Z,1.60
2018-04-30T18:18:28.646Z,1.40
2018-04-30T18:19:28.647Z,1.10
2018-04-30T18:20:28.518Z,1.20
2018-04-30T18:21:28.463Z,1.20
2018-04-30T18:22:28.386Z,1.10
2018-04-30T18:23:28.326Z,1.10
2018-04-30T18:24:28.269Z,0.90
2018-04-30T18:25:28.216Z,1.20
2018-04-30T18:26:28.136Z,1.20
2018-04-30T18:27:28.052Z,1.00
2018-04-30T18:28:27.986Z,1.10
2018-04-30T18:29:27.937Z,1.00
2018-04-30T18:30:27.862Z,1.20
2018-04-30T18:31:27.785Z,1.20
2018-04-30T18:32:27.719Z,1.10
2018-04-30T18:33:27.653Z,1.10
2018-04-30T18:34:27.589Z,1.20
2018-04-30T18:35:27.525Z,0.90
2018-04-30T18:36:27.517Z,1.00
2018-04-30T18:37:27.393Z,1.10
2018-04-30T18:38:27.327Z,1.10
2018-04-30T18:39:27.275Z,1.20
2018-04-30T18:40:27.193Z,1.50
2018-04-30T18:41:27.148Z,1.10
2018-04-30T18:42:27.082Z,1.20
2018-04-30T18:43:27.046Z,1.00
2018-04-30T18:44:26.971Z,1.10
2018-04-30T18:45:26.911Z,1.10
2018-04-30T18:46:26.831Z,1.10
2018-04-30T18:47:26.735Z,1.10
2018-04-30T18:48:26.694Z,1.00
2018-04-30T18:49:26.606Z,1.00
2018-04-30T18:50:26.554Z,1.00
2018-04-30T18:51:26.498Z,1.50
2018-04-30T18:52:26.454Z,1.20
2018-04-30T18:53:26.340Z,1.30
2018-04-30T18:54:26.282Z,1.30
2018-04-30T18:55:26.209Z,1.10
2018-04-30T18:56:26.167Z,1.40
2018-04-30T18:57:26.107Z,1.30
2018-04-30T18:58:26.009Z,1.20
2018-04-30T18:59:25.943Z,1.70
2018-04-30T19:00:25.916Z,1.40
2018-04-30T19:01:25.815Z,1.40
2018-04-30T19:02:25.777Z,1.40
2018-04-30T19:03:25.677Z,1.50
2018-04-30T19:04:25.678Z,1.60
2018-04-30T19:05:25.571Z,1.30
2018-04-30T19:06:25.501Z,1.20
2018-04-30T19:07:25.440Z,1.40
2018-04-30T19:08:25.342Z,1.40
2018-04-30T19:09:25.288Z,1.40
2018-04-30T19:10:25.238Z,1.40
2018-04-30T19:11:25.165Z,1.60
2018-04-30T19:12:25.089Z,1.40
2018-04-30T19:13:25.172Z,1.40
2018-04-30T19:14:25.004Z,1.70
2018-04-30T19:15:24.892Z,1.60
2018-04-30T19:16:24.836Z,1.40
2018-04-30T19:17:24.761Z,1.40
2018-04-30T19:18:24.687Z,1.20
2018-04-30T19:19:24.671Z,1.50
2018-04-30T19:20:24.584Z,1.50
2018-04-30T19:21:24.511Z,1.50
2018-04-30T19:22:24.433Z,1.40
2018-04-30T19:23:24.696Z,1.20
2018-04-30T19:24:24.299Z,1.30
2018-04-30T19:25:24.264Z,1.30
2018-04-30T19:26:24.182Z,1.30
2018-04-30T19:27:24.092Z,1.30
2018-04-30T19:28:24.044Z,1.40
2018-04-30T19:29:23.981Z,1.20
2018-04-30T19:30:23.913Z,1.10
2018-04-30T19:31:23.881Z,1.20
2018-04-30T19:32:23.757Z,1.20
2018-04-30T19:33:23.699Z,1.20
2018-04-30T19:34:23.627Z,1.40
2018-04-30T19:35:23.560Z,1.80
2018-04-30T19:36:23.491Z,1.40
2018-04-30T19:37:23.447Z,1.60
2018-04-30T19:38:23.400Z,1.70
2018-04-30T19:39:23.302Z,1.50
2018-04-30T19:40:23.243Z,1.70
2018-04-30T19:41:23.164Z,1.70
2018-04-30T19:42:23.161Z,1.60
2018-04-30T19:43:23.042Z,1.60
2018-04-30T19:44:22.954Z,1.50
2018-04-30T19:45:22.989Z,1.70
2018-04-30T19:46:22.823Z,1.90
2018-04-30T19:47:22.762Z,1.60
2018-04-30T19:48:22.690Z,1.60
2018-04-30T19:49:22.624Z,1.80
2018-04-30T19:50:22.576Z,1.80
2018-04-30T19:51:22.511Z,1.80
2018-04-30T19:52:22.590Z,2.20
2018-04-30T19:53:22.364Z,1.50
2018-04-30T19:54:22.311Z,1.90
2018-04-30T19:55:22.227Z,1.70
2018-04-30T19:56:22.162Z,1.40
2018-04-30T19:57:22.105Z,1.20
2018-04-30T19:58:22.025Z,1.20
2018-04-30T19:59:21.983Z,1.40
2018-04-30T20:00:21.939Z,1.40
2018-04-30T20:01:21.845Z,1.20
2018-04-30T20:02:21.784Z,1.20
2018-04-30T20:03:21.693Z,1.50
2018-04-30T20:04:21.641Z,1.50
2018-04-30T20:05:21.593Z,1.60
2018-04-30T20:06:21.574Z,1.70
2018-04-30T20:07:21.449Z,1.40
2018-04-30T20:08:21.374Z,1.80
2018-04-30T20:09:21.301Z,1.60
2018-04-30T20:10:21.253Z,1.60
2018-04-30T20:11:21.161Z,1.50
2018-04-30T20:12:21.089Z,1.30
2018-04-30T20:13:21.028Z,1.60
2018-04-30T20:14:20.957Z,1.90
2018-04-30T20:15:20.904Z,1.50
2018-04-30T20:16:20.845Z,1.80
2018-04-30T20:17:20.773Z,1.70
2018-04-30T20:18:20.695Z,1.60
2018-04-30T20:19:20.621Z,1.30
2018-04-30T20:20:20.585Z,1.50
2018-04-30T20:21:20.489Z,1.30
2018-04-30T20:22:20.440Z,1.20
2018-04-30T20:23:20.381Z,1.50
2018-04-30T20:24:20.284Z,1.40
2018-04-30T20:25:20.210Z,1.40
2018-04-30T20:26:20.183Z,1.40
2018-04-30T20:27:20.177Z,1.30
2018-04-30T20:28:20.044Z,1.10
2018-04-30T20:29:19.940Z,1.40
2018-04-30T20:30:19.894Z,1.30
2018-04-30T20:31:19.811Z,1.30
2018-04-30T20:32:19.754Z,1.20
2018-04-30T20:33:19.688Z,1.40
2018-04-30T20:34:19.608Z,1.50
2018-04-30T20:35:19.539Z,1.60
2018-04-30T20:36:19.496Z,6.40
2018-04-30T20:37:19.456Z,4.70
2018-04-30T20:38:19.389Z,1.80
2018-04-30T20:39:19.284Z,2.00
2018-04-30T20:40:19.208Z,2.00
2018-04-30T20:41:19.149Z,5.80
2018-04-30T20:42:19.082Z,4.70
2018-04-30T20:43:19.009Z,2.80
2018-04-30T20:44:18.952Z,1.90
2018-04-30T20:45:18.872Z,1.50
2018-04-30T20:46:18.835Z,1.10
2018-04-30T20:47:18.751Z,1.30
2018-04-30T20:48:18.651Z,1.30
2018-04-30T20:49:18.600Z,1.20
2018-04-30T20:50:18.595Z,1.30
2018-04-30T20:51:18.473Z,1.50
2018-04-30T20:52:18.403Z,1.30
2018-04-30T20:53:18.334Z,1.50
2018-04-30T20:54:18.268Z,1.50
2018-04-30T20:55:18.207Z,1.40
2018-04-30T20:56:18.112Z,1.50
2018-04-30T20:57:18.048Z,1.30
2018-04-30T20:58:17.990Z,1.30
2018-04-30T20:59:17.947Z,1.60
2018-04-30T21:00:17.838Z,1.50
2018-04-30T21:01:17.800Z,1.50
2018-04-30T21:02:17.720Z,1.50
2018-04-30T21:03:17.659Z,1.60
2018-04-30T21:04:17.593Z,1.60
2018-04-30T21:05:17.525Z,2.10
2018-04-30T21:06:17.433Z,1.60
2018-04-30T21:07:17.371Z,1.40
2018-04-30T21:08:17.302Z,1.50
2018-04-30T21:09:17.268Z,1.50
2018-04-30T21:10:17.177Z,1.50
2018-04-30T21:11:17.093Z,1.40
2018-04-30T21:12:17.043Z,1.20
2018-04-30T21:13:16.974Z,1.50
2018-04-30T21:14:16.904Z,1.50
2018-04-30T21:15:16.824Z,1.20
2018-04-30T21:16:16.775Z,1.50
2018-04-30T21:17:16.708Z,1.20
2018-04-30T21:18:16.637Z,1.30
2018-04-30T21:19:16.577Z,1.30
2018-04-30T21:20:16.503Z,1.20
2018-04-30T21:21:16.408Z,1.50
2018-04-30T21:22:16.347Z,1.30
2018-04-30T21:23:16.287Z,1.20
2018-04-30T21:24:16.269Z,1.30
2018-04-30T21:25:16.166Z,1.30
2018-04-30T21:26:16.088Z,1.30
2018-04-30T21:27:16.023Z,1.20
2018-04-30T21:28:15.958Z,1.30
2018-04-30T21:29:15.877Z,1.30
2018-04-30T21:30:15.816Z,1.20
2018-04-30T21:31:15.741Z,1.40
2018-04-30T21:32:15.679Z,1.50
2018-04-30T21:33:15.610Z,1.30
2018-04-30T21:34:15.531Z,1.30
2018-04-30T21:35:15.510Z,1.40
2018-04-30T21:36:15.405Z,1.50
2018-04-30T21:37:15.341Z,1.30
2018-04-30T21:38:15.296Z,1.30
2018-04-30T21:39:15.243Z,1.50
2018-04-30T21:40:15.165Z,1.50
2018-04-30T21:41:15.079Z,1.50
2018-04-30T21:42:15.019Z,1.40
2018-04-30T21:43:14.914Z,1.30
2018-04-30T21:44:14.881Z,1.30
2018-04-30T21:45:14.805Z,1.40
2018-04-30T21:46:14.738Z,1.30
2018-04-30T21:47:14.655Z,1.20
2018-04-30T21:48:14.579Z,1.20
2018-04-30T21:49:14.508Z,1.10
2018-04-30T21:50:14.446Z,1.10
2018-04-30T21:51:14.390Z,1.00
2018-04-30T21:52:14.309Z,1.00
2018-04-30T21:53:14.239Z,1.20
2018-04-30T21:54:14.196Z,1.30
2018-04-30T21:55:14.097Z,1.00
2018-04-30T21:56:14.048Z,1.30
2018-04-30T21:57:13.982Z,1.30
2018-04-30T21:58:13.891Z,1.30
2018-04-30T21:59:13.831Z,1.10
2018-04-30T22:00:13.780Z,1.20
2018-04-30T22:01:13.709Z,1.30
2018-04-30T22:02:13.646Z,1.30
2018-04-30T22:03:13.564Z,1.30
2018-04-30T22:04:13.504Z,1.20
2018-04-30T22:05:13.441Z,1.20
2018-04-30T22:06:13.368Z,1.40
2018-04-30T22:07:13.289Z,1.20
2018-04-30T22:08:13.245Z,1.40
2018-04-30T22:09:13.143Z,1.10
2018-04-30T22:10:13.095Z,1.40
2018-04-30T22:11:13.015Z,1.30
2018-04-30T22:12:13.001Z,1.10
2018-04-30T22:13:12.883Z,1.40
2018-04-30T22:14:12.823Z,1.30
2018-04-30T22:15:12.755Z,1.60
2018-04-30T22:16:12.668Z,1.70
2018-04-30T22:17:12.600Z,1.50
2018-04-30T22:18:12.555Z,1.40
2018-04-30T22:19:12.467Z,1.30
2018-04-30T22:20:12.421Z,1.10
2018-04-30T22:21:12.345Z,1.30
2018-04-30T22:22:12.297Z,1.20
2018-04-30T22:23:12.218Z,1.30
2018-04-30T22:24:12.136Z,1.20
2018-04-30T22:25:12.064Z,1.00
2018-04-30T22:26:11.993Z,1.30
2018-04-30T22:27:11.941Z,1.30
2018-04-30T22:28:11.865Z,1.50
2018-04-30T22:29:11.787Z,1.40
2018-04-30T22:30:11.725Z,1.30
2018-04-30T22:31:11.647Z,1.20
2018-04-30T22:32:11.589Z,1.70
2018-04-30T22:33:11.540Z,1.50
2018-04-30T22:34:11.454Z,1.20
2018-04-30T22:35:11.410Z,1.10
2018-04-30T22:36:11.327Z,1.20
2018-04-30T22:37:11.270Z,1.20
2018-04-30T22:38:11.201Z,2.40
2018-04-30T22:39:11.126Z,2.10
2018-04-30T22:40:11.061Z,2.10
2018-04-30T22:41:10.984Z,2.10
2018-04-30T22:42:10.909Z,1.90
2018-04-30T22:43:10.899Z,1.40
2018-04-30T22:44:10.798Z,1.50
2018-04-30T22:45:10.737Z,1.90
2018-04-30T22:46:10.633Z,1.70
2018-04-30T22:47:10.567Z,1.90
2018-04-30T22:48:10.518Z,1.40
2018-04-30T22:49:10.462Z,1.30
2018-04-30T22:50:10.378Z,1.20
2018-04-30T22:51:10.293Z,1.30
2018-04-30T22:52:10.249Z,1.10
2018-04-30T22:53:10.172Z,1.20
2018-04-30T22:54:10.111Z,1.10
2018-04-30T22:55:10.073Z,1.10
2018-04-30T22:56:09.999Z,1.00
2018-04-30T22:57:09.890Z,1.30
2018-04-30T22:58:09.836Z,1.00
2018-04-30T22:59:09.748Z,0.90
2018-04-30T23:00:09.699Z,1.40
2018-04-30T23:01:09.623Z,1.60
2018-04-30T23:02:09.562Z,1.90
2018-04-30T23:03:09.474Z,1.70
2018-04-30T23:04:09.409Z,1.50
2018-04-30T23:05:09.339Z,1.50
2018-04-30T23:06:09.277Z,1.70
2018-04-30T23:07:09.201Z,1.90
2018-04-30T23:08:09.156Z,2.90
2018-04-30T23:09:09.071Z,2.50
2018-04-30T23:10:08.997Z,1.60
2018-04-30T23:11:08.937Z,1.40
2018-04-30T23:12:08.867Z,1.00
2018-04-30T23:13:08.814Z,1.40
2018-04-30T23:14:08.740Z,1.60
2018-04-30T23:15:08.684Z,1.70
2018-04-30T23:16:08.607Z,1.80
2018-04-30T23:17:08.533Z,1.90
2018-04-30T23:18:08.489Z,1.80
2018-04-30T23:19:08.402Z,1.60
2018-04-30T23:20:08.335Z,1.50
2018-04-30T23:21:08.270Z,1.30
2018-04-30T23:22:08.202Z,1.20
2018-04-30T23:23:08.125Z,1.10
2018-04-30T23:24:08.049Z,1.40
2018-04-30T23:25:07.999Z,1.30
2018-04-30T23:26:07.949Z,1.20
2018-04-30T23:27:07.857Z,1.20
2018-04-30T23:28:07.773Z,1.30
2018-04-30T23:29:07.707Z,1.30
2018-04-30T23:30:07.649Z,1.10
2018-04-30T23:31:07.592Z,1.10
2018-04-30T23:32:07.516Z,1.00
2018-04-30T23:33:07.443Z,1.10
2018-04-30T23:34:07.387Z,1.20
2018-04-30T23:35:07.293Z,1.10
2018-04-30T23:36:07.241Z,1.40
2018-04-30T23:37:07.159Z,1.50
2018-04-30T23:38:07.105Z,1.50
2018-04-30T23:39:07.039Z,1.50
2018-04-30T23:40:06.968Z,1.50
2018-04-30T23:41:06.886Z,1.50
2018-04-30T23:42:06.817Z,1.40
2018-04-30T23:43:06.760Z,1.30
2018-04-30T23:44:06.675Z,1.60
2018-04-30T23:45:06.634Z,1.40
2018-04-30T23:46:06.539Z,1.60
2018-04-30T23:47:06.479Z,2.00
2018-04-30T23:48:06.434Z,1.40
2018-04-30T23:49:06.343Z,1.30
2018-04-30T23:50:06.281Z,1.50
2018-04-30T23:51:06.209Z,1.40
2018-04-30T23:52:06.166Z,1.50
2018-04-30T23:53:06.090Z,1.30
2018-04-30T23:54:06.023Z,1.20
2018-04-30T23:55:05.956Z,1.20
2018-04-30T23:56:05.873Z,1.30
2018-04-30T23:57:05.814Z,1.10
2018-04-30T23:58:05.742Z,1.60
2018-04-30T23:59:05.655Z,1.30
